sensor_id;sensor_type;location;lat;lon;timestamp;temperature;humidity
47310;DHT22;33046;52.270;6.832;2023-11-22T00:01:57;6.80;99.90
47310;DHT22;33046;52.270;6.832;2023-11-22T00:04:04;6.80;99.90
47310;DHT22;33046;52.270;6.832;2023-11-22T00:06:11;6.80;99.90
47310;DHT22;33046;52.270;6.832;2023-11-22T00:08:18;6.70;99.90
47310;DHT22;33046;52.270;6.832;2023-11-22T00:10:25;6.70;99.90
47310;DHT22;33046;52.270;6.832;2023-11-22T00:12:32;6.70;99.90
47310;DHT22;33046;52.270;6.832;2023-11-22T00:14:40;6.70;99.90
47310;DHT22;33046;52.270;6.832;2023-11-22T00:16:47;6.70;99.90
47310;DHT22;33046;52.270;6.832;2023-11-22T00:18:54;6.60;99.90
47310;DHT22;33046;52.270;6.832;2023-11-22T00:21:00;6.60;99.90
47310;DHT22;33046;52.270;6.832;2023-11-22T00:23:07;6.60;99.90
47310;DHT22;33046;52.270;6.832;2023-11-22T00:25:14;6.60;99.90
47310;DHT22;33046;52.270;6.832;2023-11-22T00:27:21;6.50;99.90
47310;DHT22;33046;52.270;6.832;2023-11-22T00:29:28;6.50;99.90
47310;DHT22;33046;52.270;6.832;2023-11-22T00:31:36;6.50;99.90
47310;DHT22;33046;52.270;6.832;2023-11-22T00:33:43;6.50;99.90
47310;DHT22;33046;52.270;6.832;2023-11-22T00:35:50;6.50;99.90
47310;DHT22;33046;52.270;6.832;2023-11-22T00:37:57;6.50;99.90
47310;DHT22;33046;52.270;6.832;2023-11-22T00:40:05;6.40;99.90
47310;DHT22;33046;52.270;6.832;2023-11-22T00:42:12;6.40;99.90
47310;DHT22;33046;52.270;6.832;2023-11-22T00:44:18;6.40;99.90
47310;DHT22;33046;52.270;6.832;2023-11-22T00:46:25;6.40;99.90
47310;DHT22;33046;52.270;6.832;2023-11-22T00:48:34;6.40;99.90
47310;DHT22;33046;52.270;6.832;2023-11-22T00:50:41;6.40;99.90
47310;DHT22;33046;52.270;6.832;2023-11-22T00:52:48;6.40;99.90
47310;DHT22;33046;52.270;6.832;2023-11-22T00:54:55;6.30;99.90
47310;DHT22;33046;52.270;6.832;2023-11-22T00:57:02;6.40;99.90
47310;DHT22;33046;52.270;6.832;2023-11-22T00:59:09;6.40;99.90
47310;DHT22;33046;52.270;6.832;2023-11-22T01:01:15;6.30;99.90
47310;DHT22;33046;52.270;6.832;2023-11-22T01:03:22;6.40;99.90
47310;DHT22;33046;52.270;6.832;2023-11-22T01:05:31;6.40;99.90
47310;DHT22;33046;52.270;6.832;2023-11-22T01:07:38;6.30;99.90
47310;DHT22;33046;52.270;6.832;2023-11-22T01:09:45;6.30;99.90
47310;DHT22;33046;52.270;6.832;2023-11-22T01:11:51;6.30;99.90
47310;DHT22;33046;52.270;6.832;2023-11-22T01:13:58;6.30;99.90
47310;DHT22;33046;52.270;6.832;2023-11-22T01:16:05;6.30;99.90
47310;DHT22;33046;52.270;6.832;2023-11-22T01:18:12;6.20;99.90
47310;DHT22;33046;52.270;6.832;2023-11-22T01:20:19;6.20;99.90
47310;DHT22;33046;52.270;6.832;2023-11-22T01:22:27;6.20;99.90
47310;DHT22;33046;52.270;6.832;2023-11-22T01:24:34;6.20;99.90
47310;DHT22;33046;52.270;6.832;2023-11-22T01:26:41;6.20;99.90
47310;DHT22;33046;52.270;6.832;2023-11-22T01:28:48;6.20;99.90
47310;DHT22;33046;52.270;6.832;2023-11-22T01:30:55;6.10;99.90
47310;DHT22;33046;52.270;6.832;2023-11-22T01:33:02;6.10;99.90
47310;DHT22;33046;52.270;6.832;2023-11-22T01:35:09;6.10;99.90
47310;DHT22;33046;52.270;6.832;2023-11-22T01:37:16;6.10;99.90
47310;DHT22;33046;52.270;6.832;2023-11-22T01:39:24;6.10;99.90
47310;DHT22;33046;52.270;6.832;2023-11-22T01:41:31;6.00;99.90
47310;DHT22;33046;52.270;6.832;2023-11-22T01:43:38;6.10;99.90
47310;DHT22;33046;52.270;6.832;2023-11-22T01:45:45;6.00;99.90
47310;DHT22;33046;52.270;6.832;2023-11-22T01:47:52;6.00;99.90
47310;DHT22;33046;52.270;6.832;2023-11-22T01:49:59;6.00;99.90
47310;DHT22;33046;52.270;6.832;2023-11-22T01:52:06;6.00;99.90
47310;DHT22;33046;52.270;6.832;2023-11-22T01:54:13;6.00;99.90
47310;DHT22;33046;52.270;6.832;2023-11-22T01:56:23;6.00;99.90
47310;DHT22;33046;52.270;6.832;2023-11-22T01:58:30;6.00;99.90
47310;DHT22;33046;52.270;6.832;2023-11-22T02:00:43;6.00;99.90
47310;DHT22;33046;52.270;6.832;2023-11-22T02:02:52;6.00;99.90
47310;DHT22;33046;52.270;6.832;2023-11-22T02:04:59;6.00;99.90
47310;DHT22;33046;52.270;6.832;2023-11-22T02:07:06;6.00;99.90
47310;DHT22;33046;52.270;6.832;2023-11-22T02:09:13;5.90;99.90
47310;DHT22;33046;52.270;6.832;2023-11-22T02:11:21;5.90;99.90
47310;DHT22;33046;52.270;6.832;2023-11-22T02:13:28;5.90;99.90
47310;DHT22;33046;52.270;6.832;2023-11-22T02:15:35;5.90;99.90
47310;DHT22;33046;52.270;6.832;2023-11-22T02:17:42;5.90;99.90
47310;DHT22;33046;52.270;6.832;2023-11-22T02:19:49;5.90;99.90
47310;DHT22;33046;52.270;6.832;2023-11-22T02:21:56;5.80;99.90
47310;DHT22;33046;52.270;6.832;2023-11-22T02:24:05;5.80;99.90
47310;DHT22;33046;52.270;6.832;2023-11-22T02:26:12;5.80;99.90
47310;DHT22;33046;52.270;6.832;2023-11-22T02:28:19;5.80;99.90
47310;DHT22;33046;52.270;6.832;2023-11-22T02:30:26;5.80;99.90
47310;DHT22;33046;52.270;6.832;2023-11-22T02:32:33;5.80;99.90
47310;DHT22;33046;52.270;6.832;2023-11-22T02:34:39;5.70;99.90
47310;DHT22;33046;52.270;6.832;2023-11-22T02:36:46;5.80;99.90
47310;DHT22;33046;52.270;6.832;2023-11-22T02:38:56;5.80;99.90
47310;DHT22;33046;52.270;6.832;2023-11-22T02:41:05;5.70;99.90
47310;DHT22;33046;52.270;6.832;2023-11-22T02:43:11;5.70;99.90
47310;DHT22;33046;52.270;6.832;2023-11-22T02:45:20;5.70;99.90
47310;DHT22;33046;52.270;6.832;2023-11-22T02:47:27;5.70;99.90
47310;DHT22;33046;52.270;6.832;2023-11-22T02:49:34;5.70;99.90
47310;DHT22;33046;52.270;6.832;2023-11-22T02:51:40;5.70;99.90
47310;DHT22;33046;52.270;6.832;2023-11-22T02:53:48;5.70;99.90
47310;DHT22;33046;52.270;6.832;2023-11-22T02:55:55;5.70;99.90
47310;DHT22;33046;52.270;6.832;2023-11-22T02:58:03;5.70;99.90
47310;DHT22;33046;52.270;6.832;2023-11-22T03:00:11;5.70;99.90
47310;DHT22;33046;52.270;6.832;2023-11-22T03:02:18;5.70;99.90
47310;DHT22;33046;52.270;6.832;2023-11-22T03:04:25;5.70;99.90
47310;DHT22;33046;52.270;6.832;2023-11-22T03:06:32;5.60;99.90
47310;DHT22;33046;52.270;6.832;2023-11-22T03:08:39;5.60;99.90
47310;DHT22;33046;52.270;6.832;2023-11-22T03:10:46;5.50;99.90
47310;DHT22;33046;52.270;6.832;2023-11-22T03:12:53;5.50;99.90
47310;DHT22;33046;52.270;6.832;2023-11-22T03:15:01;5.50;99.90
47310;DHT22;33046;52.270;6.832;2023-11-22T03:17:08;5.50;99.90
47310;DHT22;33046;52.270;6.832;2023-11-22T03:19:14;5.50;99.90
47310;DHT22;33046;52.270;6.832;2023-11-22T03:21:22;5.50;99.90
47310;DHT22;33046;52.270;6.832;2023-11-22T03:23:29;5.50;99.90
47310;DHT22;33046;52.270;6.832;2023-11-22T03:25:36;5.50;99.90
47310;DHT22;33046;52.270;6.832;2023-11-22T03:27:43;5.40;99.90
47310;DHT22;33046;52.270;6.832;2023-11-22T03:29:50;5.50;99.90
47310;DHT22;33046;52.270;6.832;2023-11-22T03:31:58;5.40;99.90
47310;DHT22;33046;52.270;6.832;2023-11-22T03:34:05;5.40;99.90
47310;DHT22;33046;52.270;6.832;2023-11-22T03:36:12;5.40;99.90
47310;DHT22;33046;52.270;6.832;2023-11-22T03:38:19;5.40;99.90
47310;DHT22;33046;52.270;6.832;2023-11-22T03:40:25;5.40;99.90
47310;DHT22;33046;52.270;6.832;2023-11-22T03:42:32;5.40;99.90
47310;DHT22;33046;52.270;6.832;2023-11-22T03:44:39;5.30;99.90
47310;DHT22;33046;52.270;6.832;2023-11-22T03:46:46;5.30;99.90
47310;DHT22;33046;52.270;6.832;2023-11-22T03:48:54;5.30;99.90
47310;DHT22;33046;52.270;6.832;2023-11-22T03:51:01;5.30;99.90
47310;DHT22;33046;52.270;6.832;2023-11-22T03:53:08;5.30;99.90
47310;DHT22;33046;52.270;6.832;2023-11-22T03:55:15;5.30;99.90
47310;DHT22;33046;52.270;6.832;2023-11-22T03:57:22;5.30;99.90
47310;DHT22;33046;52.270;6.832;2023-11-22T03:59:29;5.30;99.90
47310;DHT22;33046;52.270;6.832;2023-11-22T04:01:36;5.20;99.90
47310;DHT22;33046;52.270;6.832;2023-11-22T04:03:43;5.30;99.90
47310;DHT22;33046;52.270;6.832;2023-11-22T04:05:51;5.30;99.90
47310;DHT22;33046;52.270;6.832;2023-11-22T04:07:58;5.30;99.90
47310;DHT22;33046;52.270;6.832;2023-11-22T04:10:05;5.20;99.90
47310;DHT22;33046;52.270;6.832;2023-11-22T04:12:12;5.20;99.90
47310;DHT22;33046;52.270;6.832;2023-11-22T04:14:19;5.20;99.90
47310;DHT22;33046;52.270;6.832;2023-11-22T04:16:26;5.30;99.90
47310;DHT22;33046;52.270;6.832;2023-11-22T04:18:33;5.30;99.90
47310;DHT22;33046;52.270;6.832;2023-11-22T04:20:40;5.20;99.90
47310;DHT22;33046;52.270;6.832;2023-11-22T04:22:48;5.20;99.90
47310;DHT22;33046;52.270;6.832;2023-11-22T04:24:55;5.20;99.90
47310;DHT22;33046;52.270;6.832;2023-11-22T04:27:02;5.20;99.90
47310;DHT22;33046;52.270;6.832;2023-11-22T04:29:08;5.20;99.90
47310;DHT22;33046;52.270;6.832;2023-11-22T04:31:15;5.20;99.90
47310;DHT22;33046;52.270;6.832;2023-11-22T04:33:22;5.20;99.90
47310;DHT22;33046;52.270;6.832;2023-11-22T04:35:29;5.20;99.90
47310;DHT22;33046;52.270;6.832;2023-11-22T04:37:36;5.20;99.90
47310;DHT22;33046;52.270;6.832;2023-11-22T04:39:44;5.20;99.90
47310;DHT22;33046;52.270;6.832;2023-11-22T04:41:51;5.20;99.90
47310;DHT22;33046;52.270;6.832;2023-11-22T04:43:58;5.20;99.90
47310;DHT22;33046;52.270;6.832;2023-11-22T04:46:05;5.20;99.90
47310;DHT22;33046;52.270;6.832;2023-11-22T04:48:12;5.10;99.90
47310;DHT22;33046;52.270;6.832;2023-11-22T04:50:19;5.10;99.90
47310;DHT22;33046;52.270;6.832;2023-11-22T04:52:25;5.10;99.90
47310;DHT22;33046;52.270;6.832;2023-11-22T04:54:33;5.10;99.90
47310;DHT22;33046;52.270;6.832;2023-11-22T04:56:41;5.10;99.90
47310;DHT22;33046;52.270;6.832;2023-11-22T04:58:48;5.10;99.90
47310;DHT22;33046;52.270;6.832;2023-11-22T05:00:57;5.10;99.90
47310;DHT22;33046;52.270;6.832;2023-11-22T05:03:03;5.10;99.90
47310;DHT22;33046;52.270;6.832;2023-11-22T05:05:10;5.10;99.90
47310;DHT22;33046;52.270;6.832;2023-11-22T05:07:17;5.00;99.90
47310;DHT22;33046;52.270;6.832;2023-11-22T05:09:24;5.00;99.90
47310;DHT22;33046;52.270;6.832;2023-11-22T05:11:31;5.00;99.90
47310;DHT22;33046;52.270;6.832;2023-11-22T05:13:39;5.00;99.90
47310;DHT22;33046;52.270;6.832;2023-11-22T05:15:46;5.00;99.90
47310;DHT22;33046;52.270;6.832;2023-11-22T05:17:53;5.00;99.90
47310;DHT22;33046;52.270;6.832;2023-11-22T05:19:59;5.00;99.90
47310;DHT22;33046;52.270;6.832;2023-11-22T05:22:06;5.00;99.90
47310;DHT22;33046;52.270;6.832;2023-11-22T05:24:13;5.00;99.90
47310;DHT22;33046;52.270;6.832;2023-11-22T05:26:20;4.90;99.90
47310;DHT22;33046;52.270;6.832;2023-11-22T05:28:27;5.00;99.90
47310;DHT22;33046;52.270;6.832;2023-11-22T05:30:35;4.90;99.90
47310;DHT22;33046;52.270;6.832;2023-11-22T05:32:42;4.90;99.90
47310;DHT22;33046;52.270;6.832;2023-11-22T05:34:49;4.90;99.90
47310;DHT22;33046;52.270;6.832;2023-11-22T05:36:56;4.90;99.90
47310;DHT22;33046;52.270;6.832;2023-11-22T05:39:03;4.90;99.90
47310;DHT22;33046;52.270;6.832;2023-11-22T05:41:09;4.80;99.90
47310;DHT22;33046;52.270;6.832;2023-11-22T05:43:16;4.80;99.90
47310;DHT22;33046;52.270;6.832;2023-11-22T05:45:23;4.80;99.90
47310;DHT22;33046;52.270;6.832;2023-11-22T05:47:31;4.80;99.90
47310;DHT22;33046;52.270;6.832;2023-11-22T05:49:38;4.80;99.90
47310;DHT22;33046;52.270;6.832;2023-11-22T05:51:45;4.80;99.90
47310;DHT22;33046;52.270;6.832;2023-11-22T05:53:52;4.80;99.90
47310;DHT22;33046;52.270;6.832;2023-11-22T05:55:59;4.80;99.90
47310;DHT22;33046;52.270;6.832;2023-11-22T05:58:06;4.80;99.90
47310;DHT22;33046;52.270;6.832;2023-11-22T06:00:13;4.70;99.90
47310;DHT22;33046;52.270;6.832;2023-11-22T06:02:20;4.70;99.90
47310;DHT22;33046;52.270;6.832;2023-11-22T06:04:28;4.70;99.90
47310;DHT22;33046;52.270;6.832;2023-11-22T06:06:35;4.70;99.90
47310;DHT22;33046;52.270;6.832;2023-11-22T06:08:42;4.70;99.90
47310;DHT22;33046;52.270;6.832;2023-11-22T06:10:49;4.70;99.90
47310;DHT22;33046;52.270;6.832;2023-11-22T06:12:56;4.70;99.90
47310;DHT22;33046;52.270;6.832;2023-11-22T06:15:03;4.70;99.90
47310;DHT22;33046;52.270;6.832;2023-11-22T06:17:10;4.70;99.90
47310;DHT22;33046;52.270;6.832;2023-11-22T06:19:17;4.70;99.90
47310;DHT22;33046;52.270;6.832;2023-11-22T06:21:25;4.60;99.90
47310;DHT22;33046;52.270;6.832;2023-11-22T06:23:32;4.60;99.90
47310;DHT22;33046;52.270;6.832;2023-11-22T06:25:39;4.60;99.90
47310;DHT22;33046;52.270;6.832;2023-11-22T06:27:46;4.60;99.90
47310;DHT22;33046;52.270;6.832;2023-11-22T06:29:52;4.60;99.90
47310;DHT22;33046;52.270;6.832;2023-11-22T06:31:59;4.60;99.90
47310;DHT22;33046;52.270;6.832;2023-11-22T06:34:06;4.60;99.90
47310;DHT22;33046;52.270;6.832;2023-11-22T06:36:13;4.60;99.90
47310;DHT22;33046;52.270;6.832;2023-11-22T06:38:21;4.60;99.90
47310;DHT22;33046;52.270;6.832;2023-11-22T06:40:28;4.60;99.90
47310;DHT22;33046;52.270;6.832;2023-11-22T06:42:35;4.60;99.90
47310;DHT22;33046;52.270;6.832;2023-11-22T06:44:42;4.50;99.90
47310;DHT22;33046;52.270;6.832;2023-11-22T06:46:49;4.60;99.90
47310;DHT22;33046;52.270;6.832;2023-11-22T06:48:56;4.50;99.90
47310;DHT22;33046;52.270;6.832;2023-11-22T06:51:02;4.50;99.90
47310;DHT22;33046;52.270;6.832;2023-11-22T06:53:09;4.50;99.90
47310;DHT22;33046;52.270;6.832;2023-11-22T06:55:18;4.60;99.90
47310;DHT22;33046;52.270;6.832;2023-11-22T06:57:25;4.50;99.90
47310;DHT22;33046;52.270;6.832;2023-11-22T06:59:32;4.50;99.90
47310;DHT22;33046;52.270;6.832;2023-11-22T07:01:38;4.50;99.90
47310;DHT22;33046;52.270;6.832;2023-11-22T07:03:45;4.50;99.90
47310;DHT22;33046;52.270;6.832;2023-11-22T07:05:52;4.50;99.90
47310;DHT22;33046;52.270;6.832;2023-11-22T07:07:59;4.50;99.90
47310;DHT22;33046;52.270;6.832;2023-11-22T07:10:06;4.50;99.90
47310;DHT22;33046;52.270;6.832;2023-11-22T07:12:15;4.50;99.90
47310;DHT22;33046;52.270;6.832;2023-11-22T07:14:22;4.50;99.90
47310;DHT22;33046;52.270;6.832;2023-11-22T07:16:28;4.50;99.90
47310;DHT22;33046;52.270;6.832;2023-11-22T07:18:35;4.50;99.90
47310;DHT22;33046;52.270;6.832;2023-11-22T07:20:42;4.50;99.90
47310;DHT22;33046;52.270;6.832;2023-11-22T07:22:49;4.50;99.90
47310;DHT22;33046;52.270;6.832;2023-11-22T07:24:56;4.50;99.90
47310;DHT22;33046;52.270;6.832;2023-11-22T07:27:03;4.50;99.90
47310;DHT22;33046;52.270;6.832;2023-11-22T07:29:11;4.50;99.90
47310;DHT22;33046;52.270;6.832;2023-11-22T07:31:18;4.50;99.90
47310;DHT22;33046;52.270;6.832;2023-11-22T07:33:25;4.50;99.90
47310;DHT22;33046;52.270;6.832;2023-11-22T07:35:32;4.50;99.90
47310;DHT22;33046;52.270;6.832;2023-11-22T07:37:39;4.50;99.90
47310;DHT22;33046;52.270;6.832;2023-11-22T07:39:46;4.50;99.90
47310;DHT22;33046;52.270;6.832;2023-11-22T07:41:53;4.50;99.90
47310;DHT22;33046;52.270;6.832;2023-11-22T07:44:00;4.50;99.90
47310;DHT22;33046;52.270;6.832;2023-11-22T07:46:08;4.60;99.90
47310;DHT22;33046;52.270;6.832;2023-11-22T07:48:15;4.60;99.90
47310;DHT22;33046;52.270;6.832;2023-11-22T07:50:22;4.60;99.90
47310;DHT22;33046;52.270;6.832;2023-11-22T07:52:29;4.60;99.90
47310;DHT22;33046;52.270;6.832;2023-11-22T07:54:36;4.60;99.90
47310;DHT22;33046;52.270;6.832;2023-11-22T07:56:43;4.60;99.90
47310;DHT22;33046;52.270;6.832;2023-11-22T07:58:50;4.60;99.90
47310;DHT22;33046;52.270;6.832;2023-11-22T08:00:56;4.60;99.90
47310;DHT22;33046;52.270;6.832;2023-11-22T08:03:05;4.60;99.90
47310;DHT22;33046;52.270;6.832;2023-11-22T08:05:12;4.60;99.90
47310;DHT22;33046;52.270;6.832;2023-11-22T08:07:18;4.70;99.90
47310;DHT22;33046;52.270;6.832;2023-11-22T08:09:25;4.70;99.90
47310;DHT22;33046;52.270;6.832;2023-11-22T08:11:32;4.70;99.90
47310;DHT22;33046;52.270;6.832;2023-11-22T08:13:39;4.70;99.90
47310;DHT22;33046;52.270;6.832;2023-11-22T08:15:46;4.70;99.90
47310;DHT22;33046;52.270;6.832;2023-11-22T08:17:53;4.70;99.90
47310;DHT22;33046;52.270;6.832;2023-11-22T08:20:01;4.80;99.90
47310;DHT22;33046;52.270;6.832;2023-11-22T08:22:08;4.80;99.90
47310;DHT22;33046;52.270;6.832;2023-11-22T08:24:14;4.80;99.90
47310;DHT22;33046;52.270;6.832;2023-11-22T08:26:21;4.80;99.90
47310;DHT22;33046;52.270;6.832;2023-11-22T08:28:29;4.80;99.90
47310;DHT22;33046;52.270;6.832;2023-11-22T08:30:36;4.90;99.90
47310;DHT22;33046;52.270;6.832;2023-11-22T08:32:43;4.90;99.90
47310;DHT22;33046;52.270;6.832;2023-11-22T08:34:51;4.90;99.90
47310;DHT22;33046;52.270;6.832;2023-11-22T08:36:59;4.90;99.90
47310;DHT22;33046;52.270;6.832;2023-11-22T08:39:06;5.00;99.90
47310;DHT22;33046;52.270;6.832;2023-11-22T08:41:13;5.00;99.90
47310;DHT22;33046;52.270;6.832;2023-11-22T08:43:20;5.00;99.90
47310;DHT22;33046;52.270;6.832;2023-11-22T08:45:27;5.10;99.90
47310;DHT22;33046;52.270;6.832;2023-11-22T08:47:34;5.10;99.90
47310;DHT22;33046;52.270;6.832;2023-11-22T08:49:40;5.10;99.90
47310;DHT22;33046;52.270;6.832;2023-11-22T08:51:47;5.20;99.90
47310;DHT22;33046;52.270;6.832;2023-11-22T08:53:55;5.20;99.90
47310;DHT22;33046;52.270;6.832;2023-11-22T08:56:02;5.30;99.90
47310;DHT22;33046;52.270;6.832;2023-11-22T08:58:10;5.30;99.90
47310;DHT22;33046;52.270;6.832;2023-11-22T09:00:17;5.30;99.90
47310;DHT22;33046;52.270;6.832;2023-11-22T09:02:24;5.30;99.90
47310;DHT22;33046;52.270;6.832;2023-11-22T09:04:31;5.40;99.90
47310;DHT22;33046;52.270;6.832;2023-11-22T09:06:38;5.40;99.90
47310;DHT22;33046;52.270;6.832;2023-11-22T09:08:44;5.40;99.90
47310;DHT22;33046;52.270;6.832;2023-11-22T09:10:53;5.50;99.90
47310;DHT22;33046;52.270;6.832;2023-11-22T09:13:00;5.50;99.90
47310;DHT22;33046;52.270;6.832;2023-11-22T09:15:07;5.50;99.90
47310;DHT22;33046;52.270;6.832;2023-11-22T09:17:16;5.60;99.90
47310;DHT22;33046;52.270;6.832;2023-11-22T09:19:23;5.60;99.90
47310;DHT22;33046;52.270;6.832;2023-11-22T09:21:30;5.60;99.90
47310;DHT22;33046;52.270;6.832;2023-11-22T09:23:36;5.60;99.90
47310;DHT22;33046;52.270;6.832;2023-11-22T09:25:43;5.60;99.90
47310;DHT22;33046;52.270;6.832;2023-11-22T09:27:52;5.70;99.90
47310;DHT22;33046;52.270;6.832;2023-11-22T09:29:59;5.70;99.90
47310;DHT22;33046;52.270;6.832;2023-11-22T09:32:06;5.80;99.90
47310;DHT22;33046;52.270;6.832;2023-11-22T09:34:13;5.80;99.90
47310;DHT22;33046;52.270;6.832;2023-11-22T09:36:20;5.80;99.90
47310;DHT22;33046;52.270;6.832;2023-11-22T09:38:27;5.90;99.90
47310;DHT22;33046;52.270;6.832;2023-11-22T09:40:34;5.90;99.90
47310;DHT22;33046;52.270;6.832;2023-11-22T09:42:40;6.00;99.90
47310;DHT22;33046;52.270;6.832;2023-11-22T09:44:49;6.00;99.90
47310;DHT22;33046;52.270;6.832;2023-11-22T09:46:56;6.10;99.90
47310;DHT22;33046;52.270;6.832;2023-11-22T09:49:06;6.10;99.90
47310;DHT22;33046;52.270;6.832;2023-11-22T09:51:20;6.20;99.90
47310;DHT22;33046;52.270;6.832;2023-11-22T09:53:32;6.20;99.90
47310;DHT22;33046;52.270;6.832;2023-11-22T09:55:41;6.20;99.90
47310;DHT22;33046;52.270;6.832;2023-11-22T09:57:48;6.30;99.90
47310;DHT22;33046;52.270;6.832;2023-11-22T09:59:57;6.30;99.90
47310;DHT22;33046;52.270;6.832;2023-11-22T10:02:06;6.30;99.90
47310;DHT22;33046;52.270;6.832;2023-11-22T10:04:13;6.40;99.90
47310;DHT22;33046;52.270;6.832;2023-11-22T10:06:20;6.40;99.90
47310;DHT22;33046;52.270;6.832;2023-11-22T10:08:27;6.40;99.90
47310;DHT22;33046;52.270;6.832;2023-11-22T10:10:35;6.40;99.90
47310;DHT22;33046;52.270;6.832;2023-11-22T10:12:43;6.50;99.90
47310;DHT22;33046;52.270;6.832;2023-11-22T10:14:49;6.60;99.90
47310;DHT22;33046;52.270;6.832;2023-11-22T10:17:01;6.50;99.90
47310;DHT22;33046;52.270;6.832;2023-11-22T10:19:10;6.60;99.90
47310;DHT22;33046;52.270;6.832;2023-11-22T10:21:22;6.70;99.90
47310;DHT22;33046;52.270;6.832;2023-11-22T10:23:29;6.70;99.90
47310;DHT22;33046;52.270;6.832;2023-11-22T10:25:36;6.80;99.90
47310;DHT22;33046;52.270;6.832;2023-11-22T10:27:43;6.80;99.90
47310;DHT22;33046;52.270;6.832;2023-11-22T10:29:50;6.80;99.90
47310;DHT22;33046;52.270;6.832;2023-11-22T10:31:57;6.90;99.90
47310;DHT22;33046;52.270;6.832;2023-11-22T10:34:05;6.90;99.90
47310;DHT22;33046;52.270;6.832;2023-11-22T10:36:13;6.90;99.90
47310;DHT22;33046;52.270;6.832;2023-11-22T10:38:20;7.00;99.90
47310;DHT22;33046;52.270;6.832;2023-11-22T10:40:29;7.00;99.90
47310;DHT22;33046;52.270;6.832;2023-11-22T10:42:36;7.00;99.90
47310;DHT22;33046;52.270;6.832;2023-11-22T10:44:45;7.00;99.90
47310;DHT22;33046;52.270;6.832;2023-11-22T10:46:53;7.10;99.90
47310;DHT22;33046;52.270;6.832;2023-11-22T10:49:00;7.10;99.90
47310;DHT22;33046;52.270;6.832;2023-11-22T10:51:11;7.10;99.90
47310;DHT22;33046;52.270;6.832;2023-11-22T10:53:21;7.10;99.90
47310;DHT22;33046;52.270;6.832;2023-11-22T10:55:32;7.10;99.90
47310;DHT22;33046;52.270;6.832;2023-11-22T10:57:44;7.10;99.90
47310;DHT22;33046;52.270;6.832;2023-11-22T10:59:54;7.20;99.90
47310;DHT22;33046;52.270;6.832;2023-11-22T11:02:01;7.20;99.90
47310;DHT22;33046;52.270;6.832;2023-11-22T11:04:18;7.20;99.90
47310;DHT22;33046;52.270;6.832;2023-11-22T11:06:31;7.20;99.90
47310;DHT22;33046;52.270;6.832;2023-11-22T11:08:39;7.20;99.90
47310;DHT22;33046;52.270;6.832;2023-11-22T11:10:47;7.30;99.90
47310;DHT22;33046;52.270;6.832;2023-11-22T11:12:55;7.30;99.90
47310;DHT22;33046;52.270;6.832;2023-11-22T11:15:02;7.30;99.90
47310;DHT22;33046;52.270;6.832;2023-11-22T11:17:09;7.30;99.90
47310;DHT22;33046;52.270;6.832;2023-11-22T11:19:17;7.30;99.90
47310;DHT22;33046;52.270;6.832;2023-11-22T11:21:26;7.30;99.90
47310;DHT22;33046;52.270;6.832;2023-11-22T11:23:33;7.40;99.90
47310;DHT22;33046;52.270;6.832;2023-11-22T11:25:41;7.40;99.90
47310;DHT22;33046;52.270;6.832;2023-11-22T11:27:57;7.40;99.90
47310;DHT22;33046;52.270;6.832;2023-11-22T11:32:45;7.40;99.90
47310;DHT22;33046;52.270;6.832;2023-11-22T11:34:52;7.40;99.90
47310;DHT22;33046;52.270;6.832;2023-11-22T11:37:00;7.40;99.90
47310;DHT22;33046;52.270;6.832;2023-11-22T11:39:08;7.30;99.90
47310;DHT22;33046;52.270;6.832;2023-11-22T11:41:18;7.30;99.90
47310;DHT22;33046;52.270;6.832;2023-11-22T11:43:39;7.30;99.90
47310;DHT22;33046;52.270;6.832;2023-11-22T11:45:46;7.20;99.90
47310;DHT22;33046;52.270;6.832;2023-11-22T11:47:53;7.20;99.90
47310;DHT22;33046;52.270;6.832;2023-11-22T11:50:00;7.30;99.90
47310;DHT22;33046;52.270;6.832;2023-11-22T11:52:08;7.20;99.90
47310;DHT22;33046;52.270;6.832;2023-11-22T11:54:16;7.20;99.90
47310;DHT22;33046;52.270;6.832;2023-11-22T11:56:36;7.20;99.90
47310;DHT22;33046;52.270;6.832;2023-11-22T11:58:43;7.20;99.90
47310;DHT22;33046;52.270;6.832;2023-11-22T12:00:51;7.20;99.90
47310;DHT22;33046;52.270;6.832;2023-11-22T12:02:57;7.20;99.90
47310;DHT22;33046;52.270;6.832;2023-11-22T12:05:05;7.30;99.90
47310;DHT22;33046;52.270;6.832;2023-11-22T12:07:14;7.30;99.90
47310;DHT22;33046;52.270;6.832;2023-11-22T12:09:24;7.30;99.90
47310;DHT22;33046;52.270;6.832;2023-11-22T12:11:30;7.30;99.90
47310;DHT22;33046;52.270;6.832;2023-11-22T12:13:38;7.30;99.90
47310;DHT22;33046;52.270;6.832;2023-11-22T12:15:45;7.40;99.90
47310;DHT22;33046;52.270;6.832;2023-11-22T12:17:52;7.30;99.90
47310;DHT22;33046;52.270;6.832;2023-11-22T12:20:10;7.30;99.90
47310;DHT22;33046;52.270;6.832;2023-11-22T12:22:18;7.30;99.90
47310;DHT22;33046;52.270;6.832;2023-11-22T12:24:25;7.30;99.90
47310;DHT22;33046;52.270;6.832;2023-11-22T12:26:32;7.30;99.90
47310;DHT22;33046;52.270;6.832;2023-11-22T12:28:40;7.30;99.90
47310;DHT22;33046;52.270;6.832;2023-11-22T12:30:48;7.30;99.90
47310;DHT22;33046;52.270;6.832;2023-11-22T12:32:55;7.40;99.90
47310;DHT22;33046;52.270;6.832;2023-11-22T12:35:05;7.40;99.90
47310;DHT22;33046;52.270;6.832;2023-11-22T12:37:12;7.40;99.90
47310;DHT22;33046;52.270;6.832;2023-11-22T12:39:21;7.50;99.90
47310;DHT22;33046;52.270;6.832;2023-11-22T12:41:30;7.50;99.90
47310;DHT22;33046;52.270;6.832;2023-11-22T12:43:37;7.50;99.90
47310;DHT22;33046;52.270;6.832;2023-11-22T12:45:45;7.50;99.90
47310;DHT22;33046;52.270;6.832;2023-11-22T12:47:52;7.50;99.90
47310;DHT22;33046;52.270;6.832;2023-11-22T12:49:59;7.50;99.90
47310;DHT22;33046;52.270;6.832;2023-11-22T12:52:07;7.50;99.90
47310;DHT22;33046;52.270;6.832;2023-11-22T12:54:14;7.60;99.90
47310;DHT22;33046;52.270;6.832;2023-11-22T12:56:22;7.60;99.90
47310;DHT22;33046;52.270;6.832;2023-11-22T12:58:29;7.60;99.90
47310;DHT22;33046;52.270;6.832;2023-11-22T13:00:36;7.60;99.90
47310;DHT22;33046;52.270;6.832;2023-11-22T13:02:43;7.60;99.90
47310;DHT22;33046;52.270;6.832;2023-11-22T13:04:55;7.60;99.90
47310;DHT22;33046;52.270;6.832;2023-11-22T13:07:02;7.60;99.90
47310;DHT22;33046;52.270;6.832;2023-11-22T13:09:09;7.60;99.90
47310;DHT22;33046;52.270;6.832;2023-11-22T13:11:16;7.70;99.90
47310;DHT22;33046;52.270;6.832;2023-11-22T13:13:25;7.60;99.90
47310;DHT22;33046;52.270;6.832;2023-11-22T13:15:31;7.70;99.90
47310;DHT22;33046;52.270;6.832;2023-11-22T13:17:38;7.70;99.90
47310;DHT22;33046;52.270;6.832;2023-11-22T13:19:45;7.70;99.90
47310;DHT22;33046;52.270;6.832;2023-11-22T13:21:52;7.70;99.90
47310;DHT22;33046;52.270;6.832;2023-11-22T13:23:59;7.70;99.90
47310;DHT22;33046;52.270;6.832;2023-11-22T13:26:06;7.60;99.70
47310;DHT22;33046;52.270;6.832;2023-11-22T13:28:12;7.70;99.90
47310;DHT22;33046;52.270;6.832;2023-11-22T13:30:22;7.70;99.90
47310;DHT22;33046;52.270;6.832;2023-11-22T13:32:29;7.60;99.90
47310;DHT22;33046;52.270;6.832;2023-11-22T13:34:36;7.70;99.70
47310;DHT22;33046;52.270;6.832;2023-11-22T13:36:44;7.70;99.90
47310;DHT22;33046;52.270;6.832;2023-11-22T13:38:51;7.60;99.90
47310;DHT22;33046;52.270;6.832;2023-11-22T13:40:57;7.60;99.90